Time;durP1;ratioP1;P1;durP2;ratioP2;P2;SDS_P1;SDS_P2;PMS_P1;PMS_P2;Temp;Humidity;BMP_temperature;BMP_pressure;BME280_temperature;BME280_humidity;BME280_pressure;Samples;Min_cycle;Max_cycle;Signal;HPM_P1;HPM_P2
2022/09/22 00:01:51;;;;;;;3.47;3.00;;;10.20;99.90;;;;;;5013035;28;20210;-77
2022/09/22 00:04:17;;;;;;;4.47;2.73;;;10.20;99.90;;;;;;5013077;28;20164;-76
2022/09/22 00:06:47;;;;;;;3.90;2.60;;;10.20;99.90;;;;;;5013034;28;20779;-77
2022/09/22 00:09:15;;;;;;;3.97;2.77;;;10.10;99.90;;;;;;4994823;28;20186;-76
2022/09/22 00:11:42;;;;;;;4.80;2.73;;;10.10;99.90;;;;;;5012323;28;20858;-77
2022/09/22 00:14:17;;;;;;;3.90;2.87;;;10.10;99.90;;;;;;5012222;28;20865;-77
2022/09/22 00:16:46;;;;;;;3.33;2.90;;;10.00;99.90;;;;;;5012335;28;20413;-77
2022/09/22 00:19:23;;;;;;;6.67;2.70;;;10.00;99.90;;;;;;5012214;28;20533;-76
2022/09/22 00:21:50;;;;;;;5.57;3.67;;;9.90;99.90;;;;;;5012206;28;20578;-75
2022/09/22 00:24:16;;;;;;;3.10;2.80;;;9.90;99.90;;;;;;5012375;28;20419;-76
2022/09/22 00:26:42;;;;;;;3.47;3.17;;;9.80;99.90;;;;;;5012044;28;20421;-76
2022/09/22 00:29:09;;;;;;;3.70;3.00;;;9.70;99.90;;;;;;5012237;28;20414;-76
2022/09/22 00:31:40;;;;;;;4.77;3.00;;;9.60;99.90;;;;;;5012348;28;20414;-77
2022/09/22 00:34:07;;;;;;;3.97;3.50;;;9.60;99.90;;;;;;5013401;28;20412;-76
2022/09/22 00:36:34;;;;;;;3.77;3.43;;;9.50;99.90;;;;;;5011904;28;20470;-77
2022/09/22 00:38:59;;;;;;;3.10;2.80;;;9.50;99.90;;;;;;5011841;28;20558;-76
2022/09/22 00:41:28;;;;;;;3.47;3.03;;;9.40;99.90;;;;;;5011827;28;20552;-76
2022/09/22 00:44:24;;;;;;;4.37;3.20;;;9.30;99.90;;;;;;5011992;28;20200;-76
2022/09/22 00:46:58;;;;;;;3.70;3.40;;;9.30;99.90;;;;;;5011389;28;20403;-76
2022/09/22 00:49:51;;;;;;;3.30;3.00;;;9.20;99.90;;;;;;5011666;28;20435;-77
2022/09/22 00:52:39;;;;;;;4.00;2.80;;;9.20;99.90;;;;;;5011173;28;20493;-76
2022/09/22 00:55:11;;;;;;;3.20;2.80;;;9.10;99.90;;;;;;5011485;28;20492;-76
2022/09/22 00:57:39;;;;;;;3.73;3.07;;;9.10;99.90;;;;;;5011630;28;20486;-76
2022/09/22 01:00:08;;;;;;;5.00;3.30;;;9.10;99.90;;;;;;5011492;28;20898;-76
2022/09/22 01:02:34;;;;;;;3.30;3.00;;;9.00;99.90;;;;;;5011371;28;20462;-76
2022/09/22 01:04:59;;;;;;;3.57;3.27;;;9.00;99.90;;;;;;5011622;28;20443;-76
2022/09/22 01:07:28;;;;;;;3.93;3.13;;;8.90;99.90;;;;;;5012040;28;20411;-76
2022/09/22 01:09:54;;;;;;;6.33;3.20;;;8.80;99.90;;;;;;5012081;28;20207;-76
2022/09/22 01:12:21;;;;;;;4.87;3.27;;;8.80;99.90;;;;;;5011717;28;20411;-76
2022/09/22 01:14:47;;;;;;;7.63;3.30;;;8.90;99.90;;;;;;5011587;28;20434;-76
2022/09/22 01:17:31;;;;;;;3.93;3.50;;;8.90;99.90;;;;;;5011705;28;20415;-76
2022/09/22 01:20:28;;;;;;;3.60;2.73;;;8.90;99.90;;;;;;5011367;28;20592;-76
2022/09/22 01:22:59;;;;;;;3.77;3.47;;;8.80;99.90;;;;;;5011462;28;20816;-77
2022/09/22 01:25:56;;;;;;;5.63;3.23;;;8.70;99.90;;;;;;5010620;28;20437;-76
2022/09/22 01:29:02;;;;;;;5.03;3.87;;;8.70;99.90;;;;;;5011106;28;20409;-76
2022/09/22 01:31:55;;;;;;;6.70;2.93;;;8.70;99.90;;;;;;4990475;28;20443;-76
2022/09/22 01:34:31;;;;;;;3.67;2.93;;;8.70;99.90;;;;;;5011067;28;20400;-76
2022/09/22 01:37:10;;;;;;;5.67;3.00;;;8.60;99.90;;;;;;5011361;28;20431;-77
2022/09/22 01:39:43;;;;;;;5.53;3.13;;;8.60;99.90;;;;;;5011231;28;20464;-77
2022/09/22 01:42:47;;;;;;;4.50;2.80;;;8.60;99.90;;;;;;5011062;28;20454;-76
2022/09/22 01:45:21;;;;;;;4.00;2.57;;;8.50;99.90;;;;;;5010804;28;20409;-77
2022/09/22 01:47:49;;;;;;;3.13;2.37;;;8.50;99.90;;;;;;5010847;28;20933;-77
2022/09/22 01:50:34;;;;;;;3.40;2.80;;;8.50;99.90;;;;;;5010830;28;20447;-76
2022/09/22 01:53:08;;;;;;;3.40;2.40;;;8.50;99.90;;;;;;5010950;28;20415;-76
2022/09/22 01:55:37;;;;;;;4.60;3.20;;;8.40;99.90;;;;;;5010589;28;20403;-77
2022/09/22 01:58:12;;;;;;;3.80;2.60;;;8.40;99.90;;;;;;5010674;28;20411;-77
2022/09/22 02:00:40;;;;;;;3.43;2.97;;;8.40;99.90;;;;;;5010485;28;20470;-77
2022/09/22 02:03:10;;;;;;;3.53;2.73;;;8.30;99.90;;;;;;5010853;28;20949;-77
2022/09/22 02:05:40;;;;;;;3.30;3.10;;;8.30;99.90;;;;;;5011020;28;20396;-76
2022/09/22 02:08:10;;;;;;;3.37;2.97;;;8.30;99.90;;;;;;5010501;28;20404;-76
2022/09/22 02:10:41;;;;;;;4.50;3.97;;;8.30;99.90;;;;;;5010578;28;20432;-76
2022/09/22 02:13:07;;;;;;;5.30;2.90;;;8.20;99.90;;;;;;5010479;28;20906;-75
2022/09/22 02:18:28;;;;;;;3.10;2.77;;;8.20;99.90;;;;;;5010418;28;20663;-76
2022/09/22 02:20:55;;;;;;;3.37;3.07;;;8.20;99.90;;;;;;5010284;28;20615;-76
2022/09/22 02:23:20;;;;;;;3.90;3.60;;;8.20;99.90;;;;;;5010965;28;20916;-75
2022/09/22 02:25:48;;;;;;;3.23;2.93;;;8.20;99.90;;;;;;5010213;28;20409;-76
2022/09/22 02:28:17;;;;;;;4.10;3.30;;;8.20;99.90;;;;;;5010476;28;20611;-76
2022/09/22 02:30:45;;;;;;;4.27;3.20;;;8.20;99.90;;;;;;5010328;28;20436;-77
2022/09/22 02:33:12;;;;;;;5.80;2.87;;;8.20;99.90;;;;;;5009954;28;20418;-76
2022/09/22 02:35:39;;;;;;;3.60;3.03;;;8.10;99.90;;;;;;5009945;28;20423;-75
2022/09/22 02:38:22;;;;;;;5.33;3.00;;;8.10;99.90;;;;;;5011523;28;20409;-75
2022/09/22 02:40:56;;;;;;;3.90;2.97;;;8.10;99.90;;;;;;5014342;28;20826;-76
2022/09/22 02:43:47;;;;;;;3.30;2.87;;;8.10;99.90;;;;;;5014079;28;20765;-76
2022/09/22 02:46:24;;;;;;;3.77;3.47;;;8.00;99.90;;;;;;5014118;28;20415;-77
2022/09/22 02:48:55;;;;;;;4.10;3.20;;;8.00;99.90;;;;;;5014184;28;20443;-77
2022/09/22 02:51:20;;;;;;;4.00;3.70;;;8.00;99.90;;;;;;5014008;28;20503;-77
2022/09/22 02:53:46;;;;;;;3.33;3.03;;;8.00;99.90;;;;;;5013688;28;20418;-75
2022/09/22 02:56:12;;;;;;;3.47;3.17;;;8.00;99.90;;;;;;5013274;28;20162;-76
2022/09/22 02:58:37;;;;;;;3.10;2.60;;;8.00;99.90;;;;;;5013497;28;20532;-75
2022/09/22 03:01:03;;;;;;;2.73;2.37;;;8.00;99.90;;;;;;5013224;28;20196;-76
2022/09/22 03:03:28;;;;;;;3.67;2.60;;;8.00;99.90;;;;;;5013460;28;20164;-77
2022/09/22 03:05:54;;;;;;;5.13;3.40;;;7.90;99.90;;;;;;5013077;28;20232;-77
2022/09/22 03:08:20;;;;;;;3.70;3.40;;;7.90;99.90;;;;;;5013304;28;20215;-77
2022/09/22 03:10:45;;;;;;;3.57;2.83;;;7.80;99.90;;;;;;5013329;28;20197;-77
2022/09/22 03:13:11;;;;;;;2.43;2.23;;;7.80;99.90;;;;;;5013126;28;20264;-76
2022/09/22 03:15:36;;;;;;;4.23;3.07;;;7.80;99.90;;;;;;4995159;28;20263;-76
2022/09/22 03:18:02;;;;;;;3.60;3.10;;;7.70;99.90;;;;;;5013005;28;20186;-76
2022/09/22 03:20:28;;;;;;;3.53;2.70;;;7.70;99.90;;;;;;5012867;28;20274;-76
2022/09/22 03:22:54;;;;;;;3.30;3.00;;;7.70;99.90;;;;;;5013262;28;20407;-76
2022/09/22 03:25:19;;;;;;;3.40;2.23;;;7.60;99.90;;;;;;5012946;28;20714;-76
2022/09/22 03:27:45;;;;;;;3.70;3.00;;;7.60;99.90;;;;;;5013098;28;20255;-76
2022/09/22 03:30:11;;;;;;;5.00;2.90;;;7.50;99.90;;;;;;5012801;28;20423;-75
2022/09/22 03:32:37;;;;;;;2.90;2.47;;;7.60;99.90;;;;;;5013053;28;20187;-75
2022/09/22 03:35:03;;;;;;;3.40;3.10;;;7.60;99.90;;;;;;5012534;28;20411;-75
2022/09/22 03:37:28;;;;;;;3.40;2.77;;;7.50;99.90;;;;;;5012935;28;20435;-76
2022/09/22 03:39:54;;;;;;;3.97;3.00;;;7.50;99.90;;;;;;5012933;28;20530;-75
2022/09/22 03:42:19;;;;;;;2.73;2.33;;;7.50;99.90;;;;;;5012776;28;20199;-76
2022/09/22 03:44:45;;;;;;;3.30;3.00;;;7.50;99.90;;;;;;5012502;28;20176;-75
2022/09/22 03:47:10;;;;;;;2.70;2.50;;;7.50;99.90;;;;;;5012737;28;20173;-76
2022/09/22 03:49:36;;;;;;;3.93;2.80;;;7.50;99.90;;;;;;5011812;28;20266;-76
2022/09/22 03:52:02;;;;;;;3.93;3.17;;;7.50;99.90;;;;;;5012575;28;20283;-76
2022/09/22 03:54:27;;;;;;;4.00;2.70;;;7.40;99.90;;;;;;5012532;28;20176;-75
2022/09/22 03:56:54;;;;;;;2.60;2.40;;;7.40;99.90;;;;;;5012648;28;20642;-76
2022/09/22 03:59:19;;;;;;;3.10;2.40;;;7.40;99.90;;;;;;5012413;28;20454;-76
2022/09/22 04:01:45;;;;;;;3.33;2.67;;;7.40;99.90;;;;;;5012360;28;20470;-76
2022/09/22 04:04:10;;;;;;;3.03;2.80;;;7.40;99.90;;;;;;5012393;28;20184;-76
2022/09/22 04:06:37;;;;;;;3.23;2.70;;;7.30;99.90;;;;;;5012216;28;20511;-76
2022/09/22 04:09:04;;;;;;;2.73;2.53;;;7.30;99.90;;;;;;5012398;28;20505;-76
2022/09/22 04:11:29;;;;;;;2.53;2.33;;;7.30;99.90;;;;;;5012540;28;20411;-76
2022/09/22 04:13:56;;;;;;;3.63;2.17;;;7.20;99.90;;;;;;5012920;28;20496;-76
2022/09/22 04:16:21;;;;;;;4.23;3.40;;;7.30;99.90;;;;;;5012284;28;20160;-75
2022/09/22 04:18:47;;;;;;;4.33;3.10;;;7.30;99.90;;;;;;5012371;28;20904;-76
2022/09/22 04:21:12;;;;;;;5.83;2.47;;;7.20;99.90;;;;;;5052016;23;20224;-78
2022/09/22 04:23:38;;;;;;;4.90;2.90;;;7.20;99.90;;;;;;5041603;28;20186;-78
2022/09/22 04:26:04;;;;;;;3.10;2.73;;;7.20;99.90;;;;;;5039878;28;20186;-78
2022/09/22 04:28:30;;;;;;;3.60;3.00;;;7.10;99.90;;;;;;5036471;28;20225;-77
2022/09/22 04:30:56;;;;;;;3.07;2.60;;;7.20;99.90;;;;;;5035324;28;20904;-77
2022/09/22 04:33:22;;;;;;;3.10;2.80;;;7.20;99.90;;;;;;5035230;28;20498;-77
2022/09/22 04:35:49;;;;;;;3.10;2.60;;;7.20;99.90;;;;;;5035050;28;21088;-77
2022/09/22 04:38:15;;;;;;;9.33;3.73;;;7.10;99.90;;;;;;5035257;28;20413;-79
2022/09/22 04:40:40;;;;;;;2.53;2.33;;;7.10;99.90;;;;;;5036694;28;20454;-78
2022/09/22 04:43:06;;;;;;;2.93;2.63;;;7.20;99.90;;;;;;5035444;28;20468;-77
2022/09/22 04:45:31;;;;;;;5.30;3.00;;;7.20;99.90;;;;;;5035965;28;20285;-78
2022/09/22 04:47:57;;;;;;;2.80;2.50;;;7.10;99.90;;;;;;5037245;28;20176;-77
2022/09/22 04:50:23;;;;;;;4.13;3.00;;;7.10;99.90;;;;;;5036039;28;20561;-77
2022/09/22 04:52:54;;;;;;;3.60;3.10;;;7.20;99.90;;;;;;5019413;28;20164;-78
2022/09/22 04:55:22;;;;;;;4.37;3.33;;;7.20;99.90;;;;;;5038281;28;20409;-78
2022/09/22 04:57:48;;;;;;;3.63;3.33;;;7.10;99.90;;;;;;5036831;28;20406;-78
2022/09/22 05:00:15;;;;;;;3.40;2.63;;;7.10;99.90;;;;;;5041541;28;20498;-77
2022/09/22 05:02:40;;;;;;;3.50;2.83;;;7.10;99.90;;;;;;5036775;28;20450;-77
2022/09/22 05:05:07;;;;;;;3.63;3.40;;;7.20;99.90;;;;;;5035593;28;20779;-77
2022/09/22 05:07:32;;;;;;;6.03;3.77;;;7.20;99.90;;;;;;5035831;28;20542;-80
2022/09/22 05:09:58;;;;;;;4.03;2.70;;;7.20;99.90;;;;;;5037048;28;20557;-79
2022/09/22 05:12:24;;;;;;;3.40;3.10;;;7.20;99.90;;;;;;5035805;28;20203;-78
2022/09/22 05:14:49;;;;;;;3.47;3.17;;;7.20;99.90;;;;;;5035083;28;20200;-78
2022/09/22 05:17:15;;;;;;;2.77;2.57;;;7.20;99.90;;;;;;5016956;28;20175;-78
2022/09/22 05:19:40;;;;;;;4.43;4.13;;;7.30;99.90;;;;;;5034162;28;20590;-78
2022/09/22 05:22:06;;;;;;;4.03;3.63;;;7.30;99.90;;;;;;5037247;28;20214;-78
2022/09/22 05:24:32;;;;;;;8.17;5.13;;;7.30;99.90;;;;;;5040483;28;20290;-78
2022/09/22 05:26:58;;;;;;;4.33;2.83;;;7.30;99.90;;;;;;5024203;28;20168;-79
2022/09/22 05:29:24;;;;;;;3.70;3.40;;;7.30;99.90;;;;;;5042100;28;20646;-79
2022/09/22 05:31:49;;;;;;;5.80;4.20;;;7.30;99.90;;;;;;5040227;28;20856;-79
2022/09/22 05:34:15;;;;;;;3.00;2.80;;;7.50;99.90;;;;;;5042010;28;20407;-79
2022/09/22 05:36:40;;;;;;;4.00;3.70;;;7.60;99.90;;;;;;5040095;28;20172;-79
2022/09/22 05:39:06;;;;;;;4.90;3.47;;;7.60;99.90;;;;;;5039883;28;20221;-79
2022/09/22 05:41:32;;;;;;;3.23;2.93;;;7.50;99.90;;;;;;5040342;28;20284;-78
2022/09/22 05:43:57;;;;;;;3.40;3.10;;;7.50;99.90;;;;;;5040584;28;20168;-78
2022/09/22 05:46:23;;;;;;;4.57;3.17;;;7.60;99.90;;;;;;5041703;28;20179;-78
2022/09/22 05:48:48;;;;;;;5.40;3.87;;;7.60;99.90;;;;;;5042423;28;20552;-78
2022/09/22 05:51:14;;;;;;;5.03;3.60;;;7.80;99.90;;;;;;5038108;28;20192;-79
2022/09/22 05:53:39;;;;;;;8.30;4.70;;;8.20;99.90;;;;;;5042696;28;20228;-78
2022/09/22 05:56:05;;;;;;;4.40;3.70;;;8.90;99.90;;;;;;5042532;28;20184;-79
2022/09/22 05:58:30;;;;;;;3.97;3.47;;;9.60;99.90;;;;;;5039036;28;20174;-80
2022/09/22 06:00:59;;;;;;;3.57;3.27;;;10.10;99.90;;;;;;5040140;28;20653;-80
2022/09/22 06:03:24;;;;;;;6.80;2.60;;;10.30;99.90;;;;;;5042426;28;20166;-79
2022/09/22 06:05:50;;;;;;;2.10;1.77;;;11.20;99.90;;;;;;5041294;28;20474;-78
2022/09/22 06:08:16;;;;;;;5.60;2.40;;;11.10;99.90;;;;;;5042667;28;20259;-77
2022/09/22 06:10:44;;;;;;;2.53;2.30;;;11.10;99.90;;;;;;5041460;28;20199;-78
2022/09/22 06:13:10;;;;;;;2.30;2.10;;;11.10;99.90;;;;;;5038665;28;20523;-79
2022/09/22 06:15:37;;;;;;;2.00;1.80;;;11.10;99.90;;;;;;5020716;28;20425;-79
2022/09/22 06:18:05;;;;;;;3.13;2.03;;;11.70;99.90;;;;;;5038530;28;20490;-79
2022/09/22 06:20:32;;;;;;;2.93;2.00;;;12.30;99.90;;;;;;5037618;28;20787;-78
2022/09/22 06:22:58;;;;;;;2.40;2.20;;;13.30;99.90;;;;;;5019466;28;20425;-78
2022/09/22 06:25:26;;;;;;;2.33;1.97;;;13.70;99.90;;;;;;5019819;28;20801;-80
2022/09/22 06:28:04;;;;;;;2.20;2.00;;;13.60;99.90;;;;;;5036535;28;20405;-78
2022/09/22 06:30:35;;;;;;;1.90;1.80;;;13.00;99.90;;;;;;5035740;28;20455;-77
2022/09/22 06:33:00;;;;;;;2.33;1.90;;;13.90;99.90;;;;;;5036850;28;20405;-78
2022/09/22 06:35:36;;;;;;;2.90;1.93;;;14.20;99.90;;;;;;5036764;28;20447;-80
2022/09/22 06:38:04;;;;;;;2.47;2.27;;;14.10;99.90;;;;;;5035676;28;20410;-79
2022/09/22 06:40:31;;;;;;;5.13;1.87;;;14.30;99.90;;;;;;5018416;28;20430;-79
2022/09/22 06:43:06;;;;;;;3.80;3.07;;;15.40;99.90;;;;;;5038144;28;20914;-79
2022/09/22 06:45:32;;;;;;;4.73;2.13;;;15.30;99.90;;;;;;5026114;28;20424;-79
2022/09/22 06:47:59;;;;;;;2.23;2.03;;;15.40;99.90;;;;;;5022573;28;20445;-79
2022/09/22 06:50:29;;;;;;;2.50;2.20;;;15.20;99.90;;;;;;5038778;28;20463;-79
2022/09/22 06:53:06;;;;;;;2.40;2.20;;;15.90;99.90;;;;;;5034331;28;20762;-77
2022/09/22 06:55:32;;;;;;;1.80;1.70;;;16.40;99.90;;;;;;5014749;28;20406;-77
2022/09/22 06:57:59;;;;;;;2.53;2.23;;;16.70;99.90;;;;;;5031729;28;20395;-78
2022/09/22 07:00:32;;;;;;;3.97;2.20;;;17.00;99.90;;;;;;5032876;28;20415;-78
2022/09/22 07:03:04;;;;;;;3.27;2.30;;;17.40;99.90;;;;;;5033096;28;20439;-79
2022/09/22 07:05:29;;;;;;;1.93;1.73;;;17.80;99.90;;;;;;5033385;28;20420;-78
2022/09/22 07:07:55;;;;;;;4.20;2.90;;;17.30;99.90;;;;;;5032584;28;20504;-79
2022/09/22 07:10:21;;;;;;;2.83;1.93;;;17.60;99.90;;;;;;5031833;28;20558;-78
2022/09/22 07:12:47;;;;;;;4.93;3.73;;;18.50;99.90;;;;;;5017404;28;20185;-78
2022/09/22 07:15:13;;;;;;;4.80;2.40;;;18.70;99.90;;;;;;5016436;28;20648;-78
2022/09/22 07:17:39;;;;;;;1.83;1.67;;;18.90;99.90;;;;;;5033234;28;20420;-79
2022/09/22 07:20:06;;;;;;;2.40;1.73;;;18.70;99.90;;;;;;5033450;28;20281;-78
2022/09/22 07:22:33;;;;;;;3.83;3.30;;;18.90;99.90;;;;;;5033233;28;20506;-78
2022/09/22 07:25:01;;;;;;;1.83;1.73;;;18.50;99.90;;;;;;5035900;28;20746;-78
2022/09/22 07:27:26;;;;;;;1.40;1.30;;;18.40;99.90;;;;;;5037871;28;20419;-78
2022/09/22 07:29:53;;;;;;;2.80;2.30;;;17.60;99.90;;;;;;5019699;28;20414;-78
2022/09/22 07:32:20;;;;;;;1.47;1.37;;;18.60;99.90;;;;;;5037763;28;20219;-78
2022/09/22 07:34:47;;;;;;;2.13;1.50;;;19.30;99.90;;;;;;5021039;28;20423;-78
2022/09/22 07:37:14;;;;;;;1.70;1.37;;;18.40;99.90;;;;;;5040460;28;20578;-78
2022/09/22 07:39:44;;;;;;;4.07;1.20;;;18.50;99.90;;;;;;5027352;28;20422;-78
2022/09/22 07:42:10;;;;;;;1.60;1.50;;;19.50;99.90;;;;;;5039353;28;20446;-78
2022/09/22 07:48:34;;;;;;;2.20;1.67;;;19.70;99.90;;;;;;5038748;28;20865;-77
2022/09/22 07:50:05;;;;;;;1.73;1.60;;;19.20;99.90;;;;;;5036380;28;20867;-78
2022/09/22 07:52:32;;;;;;;1.40;1.30;;;18.80;99.90;;;;;;5036428;28;20457;-77
2022/09/22 07:54:58;;;;;;;5.10;1.20;;;18.60;99.90;;;;;;5037127;28;20170;-77
2022/09/22 07:57:24;;;;;;;3.20;1.27;;;18.70;99.90;;;;;;5037376;28;20488;-78
2022/09/22 07:59:49;;;;;;;3.70;1.13;;;19.50;99.90;;;;;;5020117;28;20170;-78
2022/09/22 08:02:15;;;;;;;1.77;1.03;;;18.80;99.90;;;;;;5037612;28;20180;-77
2022/09/22 08:04:40;;;;;;;1.43;1.10;;;19.00;99.90;;;;;;5036067;28;20181;-78
2022/09/22 08:07:06;;;;;;;2.17;1.97;;;20.20;99.90;;;;;;5019001;28;20181;-77
2022/09/22 08:09:32;;;;;;;1.43;1.33;;;19.90;99.90;;;;;;5036669;28;20186;-77
2022/09/22 08:11:58;;;;;;;3.30;1.30;;;18.90;99.90;;;;;;5037243;28;20212;-78
2022/09/22 08:14:25;;;;;;;1.90;0.90;;;18.40;99.90;;;;;;5038061;28;20410;-78
2022/09/22 08:16:52;;;;;;;1.40;1.20;;;18.80;99.90;;;;;;5037851;28;20413;-77
2022/09/22 08:19:18;;;;;;;1.40;1.00;;;18.00;99.90;;;;;;5035862;28;20424;-78
2022/09/22 08:21:46;;;;;;;1.83;0.93;;;17.40;99.90;;;;;;5039795;28;20459;-78
2022/09/22 08:24:13;;;;;;;1.47;0.90;;;18.40;99.90;;;;;;5042165;28;20439;-78
2022/09/22 08:26:43;;;;;;;2.43;0.90;;;18.70;99.90;;;;;;5030228;28;20418;-78
2022/09/22 08:29:09;;;;;;;1.10;0.90;;;18.40;99.90;;;;;;5052150;28;20412;-78
2022/09/22 08:31:37;;;;;;;1.27;1.03;;;18.70;99.90;;;;;;5055593;28;20461;-79
2022/09/22 08:34:05;;;;;;;1.60;0.93;;;18.80;99.90;;;;;;5053233;28;20510;-78
2022/09/22 08:36:31;;;;;;;1.10;1.00;;;19.00;99.90;;;;;;5052978;28;20467;-79
2022/09/22 08:39:01;;;;;;;1.20;1.00;;;18.10;99.90;;;;;;5052191;28;20429;-78
2022/09/22 08:41:27;;;;;;;1.43;1.10;;;18.90;99.90;;;;;;5052212;28;20209;-78
2022/09/22 08:44:14;;;;;;;0.70;0.70;;;19.00;99.90;;;;;;5046051;28;20507;-78
2022/09/22 08:46:45;;;;;;;1.27;0.70;;;18.80;99.90;;;;;;5039836;28;20423;-78
2022/09/22 08:52:24;;;;;;;3.27;0.90;;;19.00;99.90;;;;;;5040788;28;20431;-78
2022/09/22 08:54:50;;;;;;;1.37;0.70;;;19.10;99.90;;;;;;5021745;28;20512;-79
2022/09/22 08:57:35;;;;;;;1.67;0.70;;;19.30;99.90;;;;;;5041321;28;20436;-79
2022/09/22 09:00:05;;;;;;;0.90;0.80;;;19.10;99.80;;;;;;5035382;28;20160;-78
2022/09/22 09:02:40;;;;;;;0.90;0.70;;;19.50;99.90;;;;;;5033390;28;20449;-78
2022/09/22 09:05:15;;;;;;;1.10;0.80;;;19.40;99.90;;;;;;5036498;28;20387;-78
2022/09/22 09:08:07;;;;;;;1.03;0.70;;;18.70;99.90;;;;;;5038732;28;20405;-79
2022/09/22 09:10:51;;;;;;;0.90;0.80;;;18.50;99.90;;;;;;5036642;28;20448;-79
2022/09/22 09:13:31;;;;;;;2.20;1.77;;;18.40;99.90;;;;;;5039831;28;20425;-79
2022/09/22 09:16:28;;;;;;;3.43;1.30;;;18.00;99.90;;;;;;5038757;28;20448;-79
2022/09/22 09:19:01;;;;;;;1.07;0.80;;;18.20;99.90;;;;;;5034490;28;20470;-77
2022/09/22 09:21:32;;;;;;;1.33;0.87;;;18.60;99.90;;;;;;5037917;28;20529;-79
2022/09/22 09:24:02;;;;;;;1.30;0.93;;;17.20;99.90;;;;;;5038290;28;21015;-78
2022/09/22 09:26:28;;;;;;;1.37;0.80;;;17.50;99.90;;;;;;5038115;28;20425;-79
2022/09/22 09:29:00;;;;;;;0.97;0.87;;;18.30;99.90;;;;;;5023860;28;20413;-79
2022/09/22 09:31:42;;;;;;;1.63;0.80;;;18.70;99.90;;;;;;5041927;28;20446;-79
2022/09/22 09:34:16;;;;;;;1.90;0.93;;;19.50;98.70;;;;;;5025181;28;20426;-79
2022/09/22 09:36:46;;;;;;;1.20;0.70;;;18.30;99.80;;;;;;5043151;28;20922;-79
2022/09/22 09:39:20;;;;;;;2.80;2.30;;;17.60;99.90;;;;;;5042087;28;20588;-79
2022/09/22 09:41:47;;;;;;;1.63;0.70;;;18.40;99.90;;;;;;5043265;28;20460;-79
2022/09/22 09:44:30;;;;;;;1.30;1.03;;;18.50;99.20;;;;;;5025240;28;20468;-79
2022/09/22 09:47:23;;;;;;;0.77;0.70;;;18.00;99.90;;;;;;5041383;28;20416;-78
2022/09/22 09:49:53;;;;;;;2.90;0.77;;;17.40;99.90;;;;;;5041943;28;20484;-78
2022/09/22 09:52:19;;;;;;;4.20;3.43;;;17.60;99.70;;;;;;5041452;28;20413;-78
2022/09/22 09:54:46;;;;;;;7.47;1.27;;;17.60;99.60;;;;;;5041444;28;20439;-78
2022/09/22 09:57:17;;;;;;;0.73;0.67;;;17.50;99.80;;;;;;5040447;28;20409;-77
2022/09/22 10:02:32;;;;;;;1.37;0.70;;;17.20;99.90;;;;;;5033061;28;20493;-78
2022/09/22 10:04:59;;;;;;;0.73;0.70;;;16.80;99.80;;;;;;5033058;28;20484;-78
2022/09/22 10:07:38;;;;;;;0.90;0.60;;;16.50;99.90;;;;;;5037330;28;20495;-78
2022/09/22 10:10:28;;;;;;;1.53;0.80;;;16.30;99.90;;;;;;5046116;28;20424;-78
2022/09/22 10:13:06;;;;;;;1.27;1.00;;;16.20;99.90;;;;;;5043800;28;20408;-79
2022/09/22 10:15:39;;;;;;;1.47;0.80;;;16.10;99.90;;;;;;5049675;28;20495;-78
2022/09/22 10:18:23;;;;;;;2.40;0.90;;;16.50;99.90;;;;;;5024994;28;20406;-79
2022/09/22 10:21:16;;;;;;;0.80;0.73;;;16.70;99.90;;;;;;5040357;23;20992;-69
2022/09/22 10:23:47;;;;;;;0.90;0.70;;;16.60;99.90;;;;;;5021381;28;20410;-69
2022/09/22 10:26:20;;;;;;;1.63;0.90;;;16.50;99.90;;;;;;5011531;28;20861;-69
2022/09/22 10:29:04;;;;;;;2.50;2.30;;;16.70;99.90;;;;;;5011635;28;20443;-69
2022/09/22 10:31:31;;;;;;;0.97;0.87;;;16.60;99.90;;;;;;5024036;28;20420;-69
2022/09/22 10:33:59;;;;;;;1.60;0.70;;;16.80;99.90;;;;;;5031166;28;20510;-69
2022/09/22 10:36:27;;;;;;;2.00;1.13;;;16.30;99.90;;;;;;5030985;28;20771;-69
2022/09/22 10:38:54;;;;;;;1.13;0.90;;;16.10;99.90;;;;;;5031171;28;20437;-69
2022/09/22 10:41:25;;;;;;;1.10;1.00;;;15.60;99.90;;;;;;5031039;28;20449;-70
2022/09/22 10:44:01;;;;;;;1.00;0.83;;;15.70;99.90;;;;;;5031267;28;20461;-69
2022/09/22 10:46:59;;;;;;;1.10;0.80;;;16.00;99.90;;;;;;5031211;28;20427;-69
2022/09/22 10:49:56;;;;;;;1.73;1.03;;;16.40;99.90;;;;;;5031076;28;21124;-69
2022/09/22 10:52:46;;;;;;;1.60;1.50;;;16.60;99.90;;;;;;5030722;28;20431;-69
2022/09/22 10:55:27;;;;;;;5.23;3.53;;;16.70;99.90;;;;;;5030580;28;20404;-69
2022/09/22 10:58:18;;;;;;;0.90;0.80;;;16.90;99.90;;;;;;5031598;28;20419;-69
2022/09/22 11:00:46;;;;;;;0.97;0.97;;;16.60;97.30;;;;;;5034600;28;20458;-69
2022/09/22 11:03:48;;;;;;;0.60;0.60;;;16.50;98.30;;;;;;5034827;28;20804;-70
2022/09/22 11:12:27;;;;;;;1.97;0.87;;;16.70;98.00;;;;;;5034888;28;20425;-70
2022/09/22 11:15:12;;;;;;;1.10;0.80;;;16.70;97.00;;;;;;5034452;28;20445;-70
2022/09/22 11:17:59;;;;;;;1.17;0.80;;;16.70;98.00;;;;;;5034549;28;20852;-70
2022/09/22 11:20:40;;;;;;;1.53;1.33;;;16.90;98.80;;;;;;5034243;28;20419;-70
2022/09/22 11:23:32;;;;;;;1.53;0.77;;;17.00;97.40;;;;;;5034913;28;20523;-69
2022/09/22 11:26:06;;;;;;;0.70;0.70;;;16.80;97.20;;;;;;5014382;28;20483;-69
2022/09/22 11:28:38;;;;;;;0.80;0.80;;;16.60;95.50;;;;;;5014518;28;20399;-69
2022/09/22 11:31:04;;;;;;;1.37;0.80;;;16.60;96.60;;;;;;5024212;28;20434;-69
2022/09/22 11:33:57;;;;;;;1.20;0.70;;;16.60;97.70;;;;;;5034158;28;20770;-69
2022/09/22 11:36:34;;;;;;;2.63;0.93;;;16.60;96.50;;;;;;5033962;28;20269;-70
2022/09/22 11:39:09;;;;;;;2.40;1.33;;;16.40;96.80;;;;;;5034229;28;20411;-70
2022/09/22 11:42:18;;;;;;;1.10;1.00;;;16.30;97.30;;;;;;5014263;28;20463;-70
2022/09/22 11:45:02;;;;;;;0.80;0.80;;;16.60;96.90;;;;;;5014413;28;20380;-70
2022/09/22 11:47:46;;;;;;;0.60;0.60;;;16.80;96.60;;;;;;5014290;28;20485;-70
2022/09/22 11:50:47;;;;;;;1.03;0.77;;;16.50;94.70;;;;;;4996439;28;20494;-70
2022/09/22 11:53:36;;;;;;;1.00;0.73;;;16.40;95.00;;;;;;5014134;28;20407;-70
2022/09/22 11:56:17;;;;;;;1.03;0.90;;;16.40;95.00;;;;;;5013885;28;20398;-70
2022/09/22 11:58:44;;;;;;;3.00;2.03;;;16.50;93.90;;;;;;5013993;28;20510;-70
2022/09/22 12:01:14;;;;;;;0.93;0.70;;;16.50;95.40;;;;;;5013648;28;20526;-70
2022/09/22 12:03:46;;;;;;;1.13;0.83;;;16.40;94.20;;;;;;5013901;28;20409;-70
2022/09/22 12:06:16;;;;;;;2.50;1.00;;;16.60;94.00;;;;;;5013868;28;20401;-70
2022/09/22 12:09:08;;;;;;;0.80;0.60;;;16.30;94.10;;;;;;5018854;28;20928;-70
2022/09/22 12:11:36;;;;;;;0.67;0.63;;;16.60;93.70;;;;;;5026526;28;20431;-70
2022/09/22 12:14:03;;;;;;;1.57;1.07;;;16.50;93.70;;;;;;5033528;28;20411;-70
2022/09/22 12:16:40;;;;;;;0.80;0.70;;;16.90;93.60;;;;;;5033213;28;20414;-70
2022/09/22 12:19:24;;;;;;;1.83;0.80;;;16.80;93.30;;;;;;5033437;28;20442;-70
2022/09/22 12:22:17;;;;;;;0.90;0.70;;;17.00;93.40;;;;;;5033232;28;20460;-70
2022/09/22 12:24:46;;;;;;;0.93;0.70;;;17.00;93.50;;;;;;5033180;28;20416;-70
2022/09/22 12:27:16;;;;;;;0.77;0.77;;;17.10;93.40;;;;;;5033379;28;20404;-70
2022/09/22 12:29:43;;;;;;;1.33;1.10;;;17.20;93.60;;;;;;5033202;28;20401;-70
2022/09/22 12:32:24;;;;;;;2.50;0.63;;;17.20;93.50;;;;;;5033148;28;20508;-70
2022/09/22 12:34:54;;;;;;;1.37;0.70;;;17.20;92.90;;;;;;5032746;28;20400;-70
2022/09/22 12:37:37;;;;;;;0.70;0.70;;;17.20;92.00;;;;;;5021140;28;20429;-70
2022/09/22 12:40:27;;;;;;;0.70;0.70;;;17.40;92.60;;;;;;5026025;28;20419;-70
2022/09/22 12:42:53;;;;;;;0.60;0.60;;;17.00;93.40;;;;;;5032652;28;20455;-70
2022/09/22 12:45:33;;;;;;;1.83;0.90;;;17.00;93.50;;;;;;5032790;28;20457;-69
2022/09/22 12:48:01;;;;;;;0.73;0.60;;;17.10;93.30;;;;;;5032958;28;20226;-70
2022/09/22 12:50:38;;;;;;;1.00;0.70;;;17.30;93.70;;;;;;5032696;28;20986;-70
2022/09/22 12:53:10;;;;;;;0.73;0.73;;;17.10;92.70;;;;;;5033416;28;20431;-69
2022/09/22 12:55:39;;;;;;;0.80;0.63;;;17.00;92.30;;;;;;5032923;28;20484;-69
2022/09/22 12:58:17;;;;;;;1.33;0.63;;;17.00;93.00;;;;;;5032913;28;20765;-70
2022/09/22 13:00:43;;;;;;;0.80;0.80;;;16.80;92.30;;;;;;5032566;28;20431;-69
2022/09/22 13:03:24;;;;;;;0.90;0.90;;;16.80;92.70;;;;;;5032787;28;20444;-70
2022/09/22 13:06:02;;;;;;;0.60;0.60;;;16.30;93.70;;;;;;5032425;28;20171;-69
2022/09/22 13:08:30;;;;;;;2.17;1.70;;;16.00;94.70;;;;;;5032771;28;20781;-69
2022/09/22 13:11:00;;;;;;;2.37;0.70;;;16.00;95.20;;;;;;5032413;28;20428;-69
2022/09/22 13:13:28;;;;;;;0.83;0.80;;;15.90;95.60;;;;;;5032367;28;20410;-69
2022/09/22 13:15:58;;;;;;;0.80;0.80;;;15.90;95.30;;;;;;5032300;28;20771;-69
2022/09/22 13:18:28;;;;;;;0.80;0.70;;;15.90;95.50;;;;;;5032059;28;20730;-69
2022/09/22 13:20:54;;;;;;;0.90;0.80;;;15.90;95.10;;;;;;5031664;28;21209;-70
2022/09/22 13:23:20;;;;;;;0.90;0.70;;;15.80;94.50;;;;;;5031926;28;20409;-69
2022/09/22 13:25:45;;;;;;;3.10;1.00;;;15.70;93.90;;;;;;5032405;28;20401;-69
2022/09/22 13:28:22;;;;;;;0.70;0.70;;;15.70;93.90;;;;;;5032430;28;20517;-70
2022/09/22 13:31:14;;;;;;;1.57;0.87;;;15.60;93.60;;;;;;5015690;28;20240;-70